createdAt,value
2022-08-04T00:00:53.563Z,1.97
2022-08-04T00:03:25.271Z,1.90
2022-08-04T00:06:01.230Z,1.70
2022-08-04T00:08:35.865Z,1.90
2022-08-04T00:11:05.851Z,1.88
2022-08-04T00:13:33.875Z,1.80
2022-08-04T00:16:05.429Z,1.70
2022-08-04T00:18:36.027Z,1.73
2022-08-04T00:21:06.460Z,1.90
2022-08-04T00:24:10.387Z,1.80
2022-08-04T00:26:23.298Z,1.80
2022-08-04T00:28:54.268Z,1.50
2022-08-04T00:31:53.581Z,1.77
2022-08-04T00:34:12.972Z,1.65
2022-08-04T00:36:41.660Z,1.60
2022-08-04T00:39:10.306Z,1.45
2022-08-04T00:41:56.168Z,1.70
2022-08-04T00:44:30.747Z,1.83
2022-08-04T00:47:10.041Z,1.80
2022-08-04T00:50:09.563Z,1.60
2022-08-04T00:52:43.371Z,1.60
2022-08-04T00:55:22.476Z,1.57
2022-08-04T00:57:57.004Z,1.77
2022-08-04T01:00:25.009Z,1.70
2022-08-04T01:03:00.969Z,1.67
2022-08-04T01:05:38.355Z,1.67
2022-08-04T01:08:18.904Z,1.70
2022-08-04T01:10:52.987Z,1.80
2022-08-04T01:13:50.680Z,1.70
2022-08-04T01:16:21.906Z,1.70
2022-08-04T01:18:56.139Z,1.80
2022-08-04T01:22:05.098Z,1.70
2022-08-04T01:24:48.817Z,1.60
2022-08-04T01:27:24.451Z,1.80
2022-08-04T01:29:57.071Z,1.70
2022-08-04T01:32:27.132Z,1.67
2022-08-04T01:34:59.771Z,1.90
2022-08-04T01:37:33.876Z,1.70
2022-08-04T01:40:04.337Z,1.70
2022-08-04T01:42:33.197Z,1.60
2022-08-04T01:45:04.821Z,1.73
2022-08-04T01:47:32.819Z,1.90
2022-08-04T01:50:04.344Z,1.60
2022-08-04T01:52:32.509Z,1.43
2022-08-04T01:55:00.465Z,1.60
2022-08-04T01:57:32.962Z,1.60
2022-08-04T02:00:09.958Z,1.60
2022-08-04T02:02:43.841Z,1.80
2022-08-04T02:05:12.355Z,1.73
2022-08-04T02:07:51.877Z,1.80
2022-08-04T02:10:25.484Z,1.67
2022-08-04T02:13:02.609Z,1.70
2022-08-04T02:15:32.364Z,1.50
2022-08-04T02:18:08.179Z,1.70
2022-08-04T02:20:37.079Z,1.63
2022-08-04T02:23:07.583Z,1.63
2022-08-04T02:25:38.861Z,1.60
2022-08-04T02:28:14.265Z,1.80
2022-08-04T02:30:48.111Z,1.60
2022-08-04T02:33:18.245Z,1.50
2022-08-04T02:35:48.164Z,1.60
2022-08-04T02:38:25.715Z,1.63
2022-08-04T02:40:54.589Z,1.77
2022-08-04T02:43:51.040Z,1.53
2022-08-04T02:46:17.807Z,1.50
2022-08-04T02:48:48.902Z,1.60
2022-08-04T02:51:20.264Z,1.52
2022-08-04T02:53:48.781Z,1.67
2022-08-04T02:56:17.160Z,1.60
2022-08-04T02:58:50.730Z,1.80
2022-08-04T03:01:24.924Z,1.30
2022-08-04T03:04:00.149Z,1.55
2022-08-04T03:07:19.760Z,1.77
2022-08-04T03:10:16.924Z,1.63
2022-08-04T03:13:25.256Z,1.70
2022-08-04T03:16:02.252Z,1.67
2022-08-04T03:18:54.338Z,1.70
2022-08-04T03:22:00.353Z,1.43
2022-08-04T03:25:00.735Z,1.60
2022-08-04T03:27:59.854Z,1.60
2022-08-04T03:30:29.990Z,1.70
2022-08-04T03:33:22.827Z,1.50
2022-08-04T03:36:18.573Z,1.70
2022-08-04T03:39:15.444Z,1.90
2022-08-04T03:42:04.039Z,1.73
2022-08-04T03:45:01.185Z,1.70
2022-08-04T03:48:09.446Z,1.63
2022-08-04T03:51:35.080Z,1.70
2022-08-04T03:54:30.629Z,1.70
2022-08-04T03:57:40.305Z,1.65
2022-08-04T04:00:10.207Z,1.67
2022-08-04T04:02:58.076Z,1.85
2022-08-04T04:06:02.208Z,1.90
2022-08-04T04:09:20.723Z,1.67
2022-08-04T04:11:58.405Z,1.75
2022-08-04T04:14:42.424Z,1.65
2022-08-04T04:17:19.417Z,1.90
2022-08-04T04:19:59.490Z,2.00
2022-08-04T04:22:38.331Z,1.95
2022-08-04T04:25:20.017Z,1.80
2022-08-04T04:28:46.490Z,1.90
2022-08-04T04:30:53.774Z,1.90
2022-08-04T04:33:32.629Z,1.80
2022-08-04T04:36:04.145Z,1.65
2022-08-04T04:38:59.711Z,2.07
2022-08-04T04:41:55.939Z,1.90
2022-08-04T04:44:47.864Z,2.00
2022-08-04T04:47:42.972Z,1.80
2022-08-04T04:50:11.096Z,1.80
2022-08-04T04:52:41.469Z,1.73
2022-08-04T04:55:14.389Z,1.55
2022-08-04T04:57:53.910Z,1.90
2022-08-04T05:00:22.981Z,1.70
2022-08-04T05:03:29.036Z,1.60
2022-08-04T05:06:11.876Z,1.98
2022-08-04T05:09:13.677Z,1.70
2022-08-04T05:12:02.676Z,1.80
2022-08-04T05:14:41.551Z,1.60
2022-08-04T05:17:16.545Z,1.77
2022-08-04T05:19:50.429Z,1.73
2022-08-04T05:22:22.055Z,1.90
2022-08-04T05:24:50.224Z,1.60
2022-08-04T05:27:20.594Z,1.60
2022-08-04T05:29:52.881Z,1.60
2022-08-04T05:32:23.759Z,2.07
2022-08-04T05:35:00.063Z,1.67
2022-08-04T05:37:32.246Z,1.55
2022-08-04T05:40:03.409Z,1.60
2022-08-04T05:42:31.565Z,1.92
2022-08-04T05:45:01.013Z,1.60
2022-08-04T05:47:29.209Z,1.80
2022-08-04T05:50:02.121Z,1.50
2022-08-04T05:52:31.532Z,1.80
2022-08-04T05:55:02.969Z,1.87
2022-08-04T05:57:30.958Z,1.90
2022-08-04T06:00:07.077Z,1.63
2022-08-04T06:02:49.872Z,1.67
2022-08-04T06:05:19.975Z,1.90
2022-08-04T06:08:04.464Z,1.60
2022-08-04T06:10:36.111Z,1.80
2022-08-04T06:13:06.972Z,1.77
2022-08-04T06:15:36.611Z,1.50
2022-08-04T06:18:35.416Z,1.83
2022-08-04T06:21:00.836Z,1.67
2022-08-04T06:23:31.785Z,1.52
2022-08-04T06:26:00.200Z,1.70
2022-08-04T06:28:28.340Z,1.70
2022-08-04T06:32:28.233Z,1.63
2022-08-04T06:33:55.397Z,1.90
2022-08-04T06:36:25.174Z,1.60
2022-08-04T06:38:58.819Z,1.90
2022-08-04T06:41:26.996Z,1.80
2022-08-04T06:43:55.008Z,1.80
2022-08-04T06:46:24.363Z,1.80
2022-08-04T06:48:52.320Z,1.80
2022-08-04T06:51:25.815Z,1.80
2022-08-04T06:54:01.171Z,1.80
2022-08-04T06:56:29.220Z,1.85
2022-08-04T06:58:57.223Z,1.70
2022-08-04T07:01:26.593Z,1.90
2022-08-04T07:03:54.828Z,2.00
2022-08-04T07:06:22.859Z,1.80
2022-08-04T07:08:50.900Z,1.90
2022-08-04T07:11:18.897Z,2.00
2022-08-04T07:13:46.826Z,1.70
2022-08-04T07:16:15.013Z,2.05
2022-08-04T07:18:44.444Z,1.70
2022-08-04T07:21:12.549Z,1.90
2022-08-04T07:23:40.553Z,2.10
2022-08-04T07:26:12.052Z,1.70
2022-08-04T07:28:41.605Z,1.97
2022-08-04T07:31:11.476Z,1.80
2022-08-04T07:34:20.571Z,1.83
2022-08-04T07:36:50.863Z,1.73
2022-08-04T07:39:27.281Z,1.90
2022-08-04T07:41:56.885Z,1.80
2022-08-04T07:44:25.188Z,1.98
2022-08-04T07:46:53.150Z,1.98
2022-08-04T07:49:56.447Z,1.98
2022-08-04T07:52:10.438Z,2.03
2022-08-04T07:54:38.373Z,2.10
2022-08-04T07:57:06.352Z,1.98
2022-08-04T07:59:34.440Z,2.00
2022-08-04T08:02:02.724Z,1.77
2022-08-04T08:04:32.164Z,1.97
2022-08-04T08:07:00.180Z,2.00
2022-08-04T08:09:28.185Z,1.90
2022-08-04T08:12:35.967Z,2.10
2022-08-04T08:14:45.778Z,1.92
2022-08-04T08:17:13.790Z,1.70
2022-08-04T08:19:43.251Z,1.95
2022-08-04T08:22:12.078Z,1.80
2022-08-04T08:24:40.029Z,2.37
2022-08-04T08:27:07.989Z,2.78
2022-08-04T08:29:36.395Z,2.53
2022-08-04T08:32:09.090Z,2.40
2022-08-04T08:34:37.335Z,2.38
2022-08-04T08:37:13.168Z,2.80
2022-08-04T08:39:47.011Z,2.60
2022-08-04T08:42:48.686Z,2.80
2022-08-04T08:45:42.696Z,2.60
2022-08-04T08:48:39.091Z,2.70
2022-08-04T08:51:31.644Z,2.60
2022-08-04T08:54:22.468Z,2.67
2022-08-04T08:56:56.598Z,2.63
2022-08-04T08:59:39.261Z,2.33
2022-08-04T09:02:35.329Z,2.63
2022-08-04T09:05:36.682Z,2.23
2022-08-04T09:08:15.111Z,2.20
2022-08-04T09:10:48.068Z,2.25
2022-08-04T09:13:18.915Z,2.30
2022-08-04T09:15:54.118Z,2.38
2022-08-04T09:18:25.057Z,2.15
2022-08-04T09:20:55.310Z,2.10
2022-08-04T09:23:27.853Z,2.30
2022-08-04T09:26:05.134Z,2.25
2022-08-04T09:28:53.456Z,2.10
2022-08-04T09:31:25.741Z,2.20
2022-08-04T09:34:00.038Z,2.37
2022-08-04T09:36:32.667Z,2.10
2022-08-04T09:39:13.241Z,2.00
2022-08-04T09:41:52.798Z,2.35
2022-08-04T09:44:49.357Z,1.90
2022-08-04T09:47:25.691Z,1.80
2022-08-04T09:50:21.938Z,2.07
2022-08-04T09:52:59.281Z,2.10
2022-08-04T09:55:35.599Z,2.10
2022-08-04T09:58:08.353Z,2.15
2022-08-04T10:00:42.122Z,2.20
2022-08-04T10:03:14.699Z,2.30
2022-08-04T10:05:50.341Z,2.30
2022-08-04T10:08:24.353Z,2.28
2022-08-04T10:10:56.478Z,2.28
2022-08-04T10:13:30.410Z,2.22
2022-08-04T10:16:08.258Z,2.42
2022-08-04T10:18:47.111Z,2.13
2022-08-04T10:21:19.868Z,2.35
2022-08-04T10:23:55.343Z,2.05
2022-08-04T10:26:32.743Z,1.95
2022-08-04T10:29:04.549Z,2.00
2022-08-04T10:31:35.431Z,2.03
2022-08-04T10:34:07.118Z,2.13
2022-08-04T10:36:42.283Z,2.17
2022-08-04T10:39:43.644Z,2.10
2022-08-04T10:42:13.857Z,2.08
2022-08-04T10:44:50.733Z,2.20
2022-08-04T10:47:21.933Z,2.22
2022-08-04T10:49:56.291Z,2.13
2022-08-04T10:52:25.993Z,1.98
2022-08-04T10:54:57.013Z,2.00
2022-08-04T10:57:27.239Z,2.25
2022-08-04T11:00:03.264Z,1.90
2022-08-04T11:02:38.695Z,2.20
2022-08-04T11:05:13.324Z,1.98
2022-08-04T11:07:42.265Z,2.10
2022-08-04T11:10:10.402Z,1.85
2022-08-04T11:12:40.457Z,2.10
2022-08-04T11:15:12.149Z,2.17
2022-08-04T11:17:41.958Z,1.88
2022-08-04T11:23:06.858Z,1.88
2022-08-04T11:25:39.735Z,1.77
2022-08-04T11:28:11.065Z,1.70
2022-08-04T11:30:43.309Z,2.05
2022-08-04T11:33:15.691Z,1.90
2022-08-04T11:35:45.684Z,2.08
2022-08-04T11:38:18.711Z,2.00
2022-08-04T11:40:55.767Z,1.90
2022-08-04T11:43:56.268Z,1.98
2022-08-04T11:46:29.150Z,2.22
2022-08-04T11:49:04.545Z,1.90
2022-08-04T11:51:35.587Z,1.90
2022-08-04T11:54:03.560Z,1.73
2022-08-04T11:56:36.625Z,1.80
2022-08-04T11:59:07.463Z,1.80
2022-08-04T12:01:44.279Z,1.90
2022-08-04T12:04:15.278Z,1.85
2022-08-04T12:06:54.028Z,1.80
2022-08-04T12:09:32.704Z,2.05
2022-08-04T12:12:08.206Z,1.95
2022-08-04T12:14:45.356Z,1.80
2022-08-04T12:17:14.808Z,1.95
2022-08-04T12:20:03.428Z,2.00
2022-08-04T12:22:35.543Z,2.20
2022-08-04T12:25:06.114Z,1.73
2022-08-04T12:27:36.396Z,1.80
2022-08-04T12:30:58.059Z,1.70
2022-08-04T12:33:01.258Z,2.00
2022-08-04T12:35:32.304Z,1.88
2022-08-04T12:38:06.655Z,1.60
2022-08-04T12:40:37.920Z,1.77
2022-08-04T12:43:10.028Z,1.90
2022-08-04T12:45:38.008Z,2.00
2022-08-04T12:48:07.916Z,1.60
2022-08-04T12:50:36.368Z,1.93
2022-08-04T12:53:04.557Z,1.90
2022-08-04T12:55:34.555Z,1.70
2022-08-04T12:58:03.015Z,1.88
2022-08-04T13:00:39.987Z,1.65
2022-08-04T13:03:12.912Z,1.63
2022-08-04T13:05:42.110Z,1.93
2022-08-04T13:08:13.228Z,1.70
2022-08-04T13:10:42.151Z,1.73
2022-08-04T13:13:14.683Z,1.70
2022-08-04T13:15:46.620Z,1.70
2022-08-04T13:18:17.174Z,1.70
2022-08-04T13:20:45.532Z,1.50
2022-08-04T13:23:21.427Z,1.63
2022-08-04T13:26:45.251Z,1.58
2022-08-04T13:28:46.025Z,1.60
2022-08-04T13:31:16.747Z,1.70
2022-08-04T13:33:47.557Z,1.60
2022-08-04T13:36:16.001Z,1.87
2022-08-04T13:38:48.203Z,1.70
2022-08-04T13:41:16.284Z,1.60
2022-08-04T13:43:50.022Z,1.50
2022-08-04T13:46:34.793Z,1.60
2022-08-04T13:51:59.252Z,1.55
2022-08-04T13:54:30.510Z,1.60
2022-08-04T13:57:00.528Z,1.70
2022-08-04T13:59:29.334Z,1.58
2022-08-04T14:02:01.646Z,1.50
2022-08-04T14:04:31.448Z,1.60
2022-08-04T14:07:03.656Z,1.50
2022-08-04T14:09:34.890Z,1.50
2022-08-04T14:12:37.743Z,1.40
2022-08-04T14:14:56.379Z,1.50
2022-08-04T14:17:30.073Z,1.30
2022-08-04T14:20:07.934Z,1.55
2022-08-04T14:22:38.323Z,1.60
2022-08-04T14:25:16.179Z,1.50
2022-08-04T14:27:45.796Z,1.40
2022-08-04T14:30:29.784Z,1.50
2022-08-04T14:32:59.445Z,1.60
2022-08-04T14:35:57.537Z,1.42
2022-08-04T14:38:25.492Z,1.50
2022-08-04T14:40:55.512Z,1.42
2022-08-04T14:43:23.494Z,1.50
2022-08-04T14:45:55.524Z,1.50
2022-08-04T14:48:23.965Z,1.40
2022-08-04T14:50:53.441Z,1.33
2022-08-04T14:53:22.391Z,1.63
2022-08-04T14:55:51.186Z,1.48
2022-08-04T14:58:36.057Z,1.40
2022-08-04T15:01:11.901Z,1.60
2022-08-04T15:03:50.032Z,1.40
2022-08-04T15:06:23.094Z,1.50
2022-08-04T15:08:51.744Z,1.50
2022-08-04T15:11:23.045Z,1.25
2022-08-04T15:13:52.101Z,1.48
2022-08-04T15:16:20.282Z,1.55
2022-08-04T15:18:49.455Z,1.50
2022-08-04T15:21:17.944Z,1.45
2022-08-04T15:23:47.294Z,1.20
2022-08-04T15:26:17.791Z,1.50
2022-08-04T15:28:48.354Z,1.50
2022-08-04T15:32:07.624Z,1.30
2022-08-04T15:34:04.276Z,1.20
2022-08-04T15:36:36.520Z,1.33
2022-08-04T15:39:09.862Z,1.52
2022-08-04T15:41:55.298Z,1.20
2022-08-04T15:44:48.824Z,1.20
2022-08-04T15:47:17.205Z,1.48
2022-08-04T15:49:45.288Z,1.63
2022-08-04T15:52:15.835Z,1.40
2022-08-04T15:54:52.747Z,1.60
2022-08-04T15:57:40.646Z,1.45
2022-08-04T16:00:14.520Z,1.40
2022-08-04T16:02:44.195Z,1.40
2022-08-04T16:05:35.557Z,1.50
2022-08-04T16:08:16.094Z,1.55
2022-08-04T16:10:47.770Z,1.35
2022-08-04T16:13:16.211Z,1.48
2022-08-04T16:15:45.875Z,1.40
2022-08-04T16:18:26.172Z,1.40
2022-08-04T16:20:58.598Z,1.60
2022-08-04T16:23:53.648Z,1.48
2022-08-04T16:26:54.229Z,1.50
2022-08-04T16:29:27.768Z,1.70
2022-08-04T16:32:15.366Z,1.60
2022-08-04T16:34:50.070Z,1.73
2022-08-04T16:37:19.548Z,1.50
2022-08-04T16:39:49.896Z,1.80
2022-08-04T16:42:34.342Z,1.60
2022-08-04T16:45:12.404Z,1.50
2022-08-04T16:48:02.316Z,1.60
2022-08-04T16:50:30.444Z,1.63
2022-08-04T16:52:58.416Z,1.50
2022-08-04T16:55:28.310Z,1.55
2022-08-04T16:57:58.732Z,1.52
2022-08-04T17:00:30.792Z,1.60
2022-08-04T17:02:58.881Z,1.67
2022-08-04T17:05:39.933Z,1.60
2022-08-04T17:10:57.823Z,1.80
2022-08-04T17:14:01.983Z,1.60
2022-08-04T17:16:19.362Z,1.33
2022-08-04T17:18:48.273Z,1.40
2022-08-04T17:21:19.457Z,1.92
2022-08-04T17:24:15.061Z,1.40
2022-08-04T17:26:39.399Z,1.45
2022-08-04T17:29:09.993Z,1.55
2022-08-04T17:31:39.908Z,1.75
2022-08-04T17:34:16.733Z,1.42
2022-08-04T17:36:47.993Z,1.73
2022-08-04T17:39:20.204Z,1.48
2022-08-04T17:41:49.909Z,1.50
2022-08-04T17:44:19.647Z,1.60
2022-08-04T17:46:49.020Z,1.50
2022-08-04T17:49:23.606Z,1.40
2022-08-04T17:52:04.478Z,1.50
2022-08-04T17:54:41.084Z,1.50
2022-08-04T17:57:15.445Z,1.48
2022-08-04T17:59:55.917Z,1.40
2022-08-04T18:02:33.283Z,1.50
2022-08-04T18:05:06.846Z,1.40
2022-08-04T18:08:35.058Z,1.40
2022-08-04T18:10:51.756Z,1.55
2022-08-04T18:13:23.004Z,1.80
2022-08-04T18:16:01.017Z,1.50
2022-08-04T18:18:31.917Z,1.60
2022-08-04T18:21:02.902Z,1.67
2022-08-04T18:23:33.865Z,1.60
2022-08-04T18:26:03.807Z,1.52
2022-08-04T18:28:33.809Z,1.60
2022-08-04T18:31:03.486Z,1.35
2022-08-04T18:33:40.521Z,1.67
2022-08-04T18:38:59.192Z,1.58
2022-08-04T18:44:29.220Z,1.60
2022-08-04T18:47:22.217Z,1.48
2022-08-04T18:51:11.320Z,1.52
2022-08-04T18:52:34.506Z,1.55
2022-08-04T18:55:02.585Z,1.40
2022-08-04T18:58:01.209Z,1.60
2022-08-04T19:00:21.557Z,1.40
2022-08-04T19:02:54.895Z,1.40
2022-08-04T19:05:25.552Z,1.50
2022-08-04T19:08:32.479Z,1.45
2022-08-04T19:10:59.897Z,1.40
2022-08-04T19:13:29.654Z,1.55
2022-08-04T19:16:03.009Z,1.50
2022-08-04T19:18:36.537Z,1.40
2022-08-04T19:21:05.254Z,1.60
2022-08-04T19:24:26.388Z,1.33
2022-08-04T19:26:28.223Z,1.58
2022-08-04T19:28:56.474Z,1.40
2022-08-04T19:31:34.082Z,1.58
2022-08-04T19:34:04.709Z,1.60
2022-08-04T19:36:33.649Z,1.60
2022-08-04T19:39:02.732Z,1.40
2022-08-04T19:41:33.222Z,1.50
2022-08-04T19:44:23.929Z,1.48
2022-08-04T19:46:54.076Z,1.33
2022-08-04T19:50:04.023Z,1.38
2022-08-04T19:52:11.410Z,1.30
2022-08-04T19:54:40.701Z,1.42
2022-08-04T19:57:09.051Z,1.45
2022-08-04T19:59:48.365Z,1.40
2022-08-04T20:02:16.537Z,1.50
2022-08-04T20:04:45.809Z,1.50
2022-08-04T20:07:15.688Z,1.40
2022-08-04T20:09:43.784Z,1.52
2022-08-04T20:12:21.744Z,1.52
2022-08-04T20:14:49.861Z,1.42
2022-08-04T20:17:19.521Z,1.35
2022-08-04T20:20:10.096Z,1.50
2022-08-04T20:22:51.689Z,1.30
2022-08-04T20:25:36.926Z,1.50
2022-08-04T20:28:06.360Z,1.35
2022-08-04T20:30:34.350Z,1.38
2022-08-04T20:33:04.251Z,1.50
2022-08-04T20:36:00.853Z,1.23
2022-08-04T20:38:33.010Z,1.20
2022-08-04T20:41:02.288Z,1.30
2022-08-04T20:43:31.411Z,1.38
2022-08-04T20:45:59.899Z,1.38
2022-08-04T20:48:28.983Z,1.35
2022-08-04T20:51:00.169Z,1.40
2022-08-04T20:53:46.762Z,1.20
2022-08-04T20:56:19.400Z,1.20
2022-08-04T20:59:00.006Z,1.38
2022-08-04T21:01:30.750Z,1.13
2022-08-04T21:04:27.544Z,1.30
2022-08-04T21:06:58.172Z,1.20
2022-08-04T21:12:26.882Z,1.20
2022-08-04T21:14:58.917Z,1.35
2022-08-04T21:17:56.840Z,1.30
2022-08-04T21:20:24.599Z,0.93
2022-08-04T21:22:59.538Z,1.30
2022-08-04T21:25:28.079Z,1.33
2022-08-04T21:27:58.553Z,1.30
2022-08-04T21:30:27.404Z,1.33
2022-08-04T21:32:55.707Z,1.30
2022-08-04T21:35:36.667Z,1.20
2022-08-04T21:38:16.127Z,1.20
2022-08-04T21:40:53.529Z,1.20
2022-08-04T21:43:23.583Z,1.23
2022-08-04T21:45:55.877Z,1.10
2022-08-04T21:48:27.585Z,1.30
2022-08-04T21:50:55.731Z,1.10
2022-08-04T21:53:27.697Z,1.30
2022-08-04T21:56:04.784Z,1.30
2022-08-04T21:58:35.052Z,1.13
2022-08-04T22:01:12.698Z,1.20
2022-08-04T22:03:52.417Z,1.20
2022-08-04T22:06:28.468Z,1.10
2022-08-04T22:08:58.471Z,1.10
2022-08-04T22:11:48.817Z,1.30
2022-08-04T22:14:29.180Z,1.27
2022-08-04T22:17:01.596Z,1.20
2022-08-04T22:19:50.149Z,1.10
2022-08-04T22:22:25.908Z,1.00
2022-08-04T22:24:58.894Z,1.10
2022-08-04T22:27:47.246Z,1.23
2022-08-04T22:30:17.092Z,1.20
2022-08-04T22:32:45.598Z,1.20
2022-08-04T22:35:42.945Z,1.10
2022-08-04T22:38:05.630Z,1.02
2022-08-04T22:40:38.235Z,1.10
2022-08-04T22:43:31.166Z,1.00
2022-08-04T22:45:54.149Z,1.00
2022-08-04T22:48:22.105Z,1.10
2022-08-04T22:50:50.569Z,1.30
2022-08-04T22:53:18.600Z,1.00
2022-08-04T22:56:06.350Z,1.10
2022-08-04T22:58:35.815Z,1.10
2022-08-04T23:01:04.612Z,1.10
2022-08-04T23:03:37.562Z,1.20
2022-08-04T23:06:10.591Z,1.08
2022-08-04T23:08:43.162Z,1.25
2022-08-04T23:11:15.885Z,1.00
2022-08-04T23:13:43.989Z,1.10
2022-08-04T23:16:12.235Z,0.90
2022-08-04T23:18:42.010Z,1.00
2022-08-04T23:21:11.023Z,1.20
2022-08-04T23:23:45.386Z,1.10
2022-08-04T23:26:27.708Z,1.25
2022-08-04T23:28:59.168Z,1.10
2022-08-04T23:31:40.532Z,1.10
2022-08-04T23:34:12.488Z,1.08
2022-08-04T23:36:41.270Z,1.15
2022-08-04T23:39:10.693Z,1.30
2022-08-04T23:41:53.915Z,1.10
2022-08-04T23:44:25.248Z,1.20
2022-08-04T23:46:59.427Z,1.00
2022-08-04T23:49:44.159Z,1.10
2022-08-04T23:52:23.362Z,1.10
2022-08-04T23:54:58.298Z,1.13
2022-08-04T23:58:02.182Z,1.10
